createdAt,value
2022-08-03T00:00:52.457Z,100439.7
2022-08-03T00:02:57.510Z,100439.67
2022-08-03T00:05:02.193Z,100443.23
2022-08-03T00:07:06.800Z,100439.4
2022-08-03T00:09:11.350Z,100444.07
2022-08-03T00:11:15.923Z,100445.45
2022-08-03T00:13:20.489Z,100440.77
2022-08-03T00:15:26.859Z,100439.44
2022-08-03T00:17:54.179Z,100443.55
2022-08-03T00:19:58.881Z,100443.96
2022-08-03T00:22:03.474Z,100443.22
2022-08-03T00:24:08.066Z,100443.05
2022-08-03T00:26:12.781Z,100438.16
2022-08-03T00:28:17.413Z,100441.8
2022-08-03T00:30:30.800Z,100438.3
2022-08-03T00:32:36.083Z,100438.33
2022-08-03T00:35:00.162Z,100442.5
2022-08-03T00:37:11.609Z,100442.14
2022-08-03T00:39:16.153Z,100444.98
2022-08-03T00:41:20.878Z,100447.45
2022-08-03T00:43:25.477Z,100448.66
2022-08-03T00:45:30.013Z,100447.28
2022-08-03T00:47:34.635Z,100443
2022-08-03T00:49:39.351Z,100444.23
2022-08-03T00:51:45.921Z,100440.27
2022-08-03T00:53:50.541Z,100434.89
2022-08-03T00:55:55.061Z,100435.98
2022-08-03T00:57:59.685Z,100439.71
2022-08-03T01:00:04.405Z,100440.66
2022-08-03T01:02:09.095Z,100436.57
2022-08-03T01:04:13.958Z,100436.94
2022-08-03T01:06:18.591Z,100436.36
2022-08-03T01:08:23.304Z,100432.03
2022-08-03T01:10:27.931Z,100433.02
2022-08-03T01:12:36.047Z,100436.42
2022-08-03T01:14:40.755Z,100434.77
2022-08-03T01:16:45.475Z,100434.5
2022-08-03T01:18:50.095Z,100435.14
2022-08-03T01:20:58.967Z,100438.34
2022-08-03T01:23:03.573Z,100434.75
2022-08-03T01:25:08.155Z,100431.86
2022-08-03T01:27:12.652Z,100429.52
2022-08-03T01:29:17.166Z,100427.66
2022-08-03T01:31:21.778Z,100424.36
2022-08-03T01:33:26.302Z,100422.58
2022-08-03T01:35:31.116Z,100426.25
2022-08-03T01:37:39.807Z,100426.02
2022-08-03T01:39:44.378Z,100423.25
2022-08-03T01:41:49.021Z,100422.18
2022-08-03T01:44:30.964Z,100419.56
2022-08-03T01:46:35.643Z,100415
2022-08-03T01:48:40.197Z,100419.19
2022-08-03T01:50:44.748Z,100417.02
2022-08-03T01:52:49.408Z,100420.89
2022-08-03T01:54:54.127Z,100419.93
2022-08-03T01:56:58.634Z,100423.03
2022-08-03T01:59:03.267Z,100418.78
2022-08-03T02:01:08.026Z,100414.84
2022-08-03T02:03:12.821Z,100410.11
2022-08-03T02:05:17.434Z,100408.05
2022-08-03T02:07:21.924Z,100410.17
2022-08-03T02:09:26.474Z,100413.27
2022-08-03T02:11:31.094Z,100407.61
2022-08-03T02:13:35.610Z,100403.84
2022-08-03T02:15:40.235Z,100403.17
2022-08-03T02:17:44.855Z,100404.53
2022-08-03T02:19:49.442Z,100403.99
2022-08-03T02:22:01.796Z,100406
2022-08-03T02:24:07.628Z,100400.11
2022-08-03T02:26:12.145Z,100399.38
2022-08-03T02:28:16.744Z,100398.62
2022-08-03T02:30:21.291Z,100400.03
2022-08-03T02:32:25.883Z,100402.8
2022-08-03T02:34:30.399Z,100398.41
2022-08-03T02:36:34.929Z,100402.73
2022-08-03T02:38:39.466Z,100400.67
2022-08-03T02:40:44.060Z,100401.92
2022-08-03T02:42:48.617Z,100403.55
2022-08-03T02:44:53.232Z,100398.02
2022-08-03T02:46:57.734Z,100398.98
2022-08-03T02:49:50.198Z,100405.98
2022-08-03T02:51:56.407Z,100408.77
2022-08-03T02:54:00.934Z,100412.19
2022-08-03T02:56:05.664Z,100408.02
2022-08-03T02:58:10.315Z,100410.78
2022-08-03T03:00:28.693Z,100410.13
2022-08-03T03:02:33.284Z,100407.6
2022-08-03T03:04:37.908Z,100413.89
2022-08-03T03:07:57.272Z,100415.39
2022-08-03T03:10:01.902Z,100418.56
2022-08-03T03:12:06.630Z,100415.56
2022-08-03T03:14:11.144Z,100416.66
2022-08-03T03:16:15.865Z,100416.62
2022-08-03T03:18:23.865Z,100417.8
2022-08-03T03:20:31.400Z,100422.55
2022-08-03T03:22:35.976Z,100416.65
2022-08-03T03:24:40.596Z,100416.81
2022-08-03T03:26:45.223Z,100416.83
2022-08-03T03:28:49.931Z,100421.5
2022-08-03T03:30:54.814Z,100421.35
2022-08-03T03:32:59.389Z,100415.74
2022-08-03T03:35:03.912Z,100419.92
2022-08-03T03:37:08.428Z,100421.34
2022-08-03T03:39:16.839Z,100421.98
2022-08-03T03:41:21.810Z,100425.49
2022-08-03T03:43:26.386Z,100418.11
2022-08-03T03:45:30.907Z,100416.49
2022-08-03T03:47:35.499Z,100418.3
2022-08-03T03:49:40.510Z,100416.81
2022-08-03T03:51:45.192Z,100417.48
2022-08-03T03:53:49.678Z,100415.62
2022-08-03T03:56:03.218Z,100424.31
2022-08-03T03:58:07.753Z,100420.5
2022-08-03T04:00:12.367Z,100419.45
2022-08-03T04:02:17.448Z,100420.08
2022-08-03T04:04:22.208Z,100420.94
2022-08-03T04:06:26.750Z,100420.67
2022-08-03T04:08:31.378Z,100423.8
2022-08-03T04:10:35.958Z,100425.31
2022-08-03T04:12:51.261Z,100428.1
2022-08-03T04:14:55.783Z,100427.09
2022-08-03T04:17:00.303Z,100430.8
2022-08-03T04:19:04.916Z,100433.28
2022-08-03T04:21:09.446Z,100434.16
2022-08-03T04:23:16.576Z,100431.27
2022-08-03T04:25:21.139Z,100436.5
2022-08-03T04:27:25.762Z,100435.51
2022-08-03T04:29:30.369Z,100435.13
2022-08-03T04:31:34.902Z,100438.55
2022-08-03T04:33:39.419Z,100439.88
2022-08-03T04:36:03.975Z,100439.75
2022-08-03T04:38:08.634Z,100439.53
2022-08-03T04:40:13.258Z,100441.91
2022-08-03T04:42:19.467Z,100444.03
2022-08-03T04:44:29.289Z,100443.82
2022-08-03T04:46:33.875Z,100444.66
2022-08-03T04:48:40.463Z,100446.54
2022-08-03T04:50:48.453Z,100449.9
2022-08-03T04:52:53.069Z,100447.01
2022-08-03T04:54:57.691Z,100445.23
2022-08-03T04:57:02.298Z,100445.94
2022-08-03T04:59:06.932Z,100445.75
2022-08-03T05:01:11.757Z,100446.05
2022-08-03T05:03:25.391Z,100441.5
2022-08-03T05:05:51.000Z,100441.03
2022-08-03T05:07:56.553Z,100439.92
2022-08-03T05:10:04.688Z,100440.07
2022-08-03T05:12:20.549Z,100436.41
2022-08-03T05:14:29.235Z,100437.58
2022-08-03T05:16:33.866Z,100438.31
2022-08-03T05:18:38.402Z,100436.64
2022-08-03T05:20:43.117Z,100434.92
2022-08-03T05:22:47.746Z,100437.07
2022-08-03T05:24:52.364Z,100438.55
2022-08-03T05:26:56.974Z,100439.7
2022-08-03T05:29:01.470Z,100435.48
2022-08-03T05:31:06.028Z,100443.13
2022-08-03T05:33:10.642Z,100445.73
2022-08-03T05:36:04.521Z,100453.27
2022-08-03T05:38:10.321Z,100449.23
2022-08-03T05:40:15.311Z,100450.84
2022-08-03T05:42:19.923Z,100449.61
2022-08-03T05:44:24.545Z,100454.83
2022-08-03T05:46:29.164Z,100452.84
2022-08-03T05:48:33.686Z,100451.88
2022-08-03T05:50:43.736Z,100451.22
2022-08-03T05:52:48.659Z,100454.41
2022-08-03T05:54:58.451Z,100452.31
2022-08-03T05:57:03.115Z,100455.3
2022-08-03T05:59:38.566Z,100460.84
2022-08-03T06:01:59.310Z,100465.08
2022-08-03T06:04:04.097Z,100460
2022-08-03T06:06:08.603Z,100460.97
2022-08-03T06:08:16.615Z,100459.56
2022-08-03T06:10:38.490Z,100461.62
2022-08-03T06:12:43.138Z,100461.2
2022-08-03T06:14:47.683Z,100464.24
2022-08-03T06:16:52.303Z,100462.95
2022-08-03T06:18:56.822Z,100466.08
2022-08-03T06:21:16.502Z,100467.6
2022-08-03T06:23:21.326Z,100469.22
2022-08-03T06:25:25.923Z,100466.84
2022-08-03T06:27:37.997Z,100467.03
2022-08-03T06:29:42.661Z,100466.23
2022-08-03T06:31:47.154Z,100467.39
2022-08-03T06:34:35.722Z,100472.94
2022-08-03T06:36:40.453Z,100470.03
2022-08-03T06:38:44.974Z,100466.56
2022-08-03T06:40:51.863Z,100465.38
2022-08-03T06:42:57.038Z,100467.58
2022-08-03T06:45:01.601Z,100467.55
2022-08-03T06:47:06.026Z,100467.57
2022-08-03T06:49:10.627Z,100468.81
2022-08-03T06:51:15.249Z,100466.61
2022-08-03T06:53:22.409Z,100463.94
2022-08-03T06:55:26.964Z,100465.14
2022-08-03T06:57:31.470Z,100468.77
2022-08-03T07:00:12.871Z,100466.8
2022-08-03T07:02:20.682Z,100464.31
2022-08-03T07:04:25.389Z,100469.39
2022-08-03T07:06:30.007Z,100466.34
2022-08-03T07:08:35.654Z,100466.43
2022-08-03T07:10:40.173Z,100464.94
2022-08-03T07:12:57.595Z,100471.2
2022-08-03T07:15:04.212Z,100464.93
2022-08-03T07:17:13.081Z,100461.7
2022-08-03T07:19:17.605Z,100463.23
2022-08-03T07:21:22.222Z,100464.95
2022-08-03T07:23:26.946Z,100466.77
2022-08-03T07:25:31.568Z,100469.2
2022-08-03T07:27:36.191Z,100468.59
2022-08-03T07:29:40.777Z,100464.2
2022-08-03T07:31:45.411Z,100467.16
2022-08-03T07:33:49.945Z,100466.11
2022-08-03T07:35:54.573Z,100458.28
2022-08-03T07:37:59.192Z,100457.95
2022-08-03T07:40:03.812Z,100456.19
2022-08-03T07:42:08.434Z,100454.61
2022-08-03T07:44:13.056Z,100454.17
2022-08-03T07:46:17.784Z,100458.18
2022-08-03T07:48:22.403Z,100454.99
2022-08-03T07:50:27.015Z,100456.49
2022-08-03T07:52:31.542Z,100452.72
2022-08-03T07:54:36.163Z,100458.84
2022-08-03T07:56:40.862Z,100460.19
2022-08-03T07:58:45.404Z,100466.09
2022-08-03T08:00:50.259Z,100465.66
2022-08-03T08:02:54.956Z,100463.33
2022-08-03T08:05:06.258Z,100463.75
2022-08-03T08:07:11.091Z,100463.23
2022-08-03T08:09:15.785Z,100457.52
2022-08-03T08:11:20.508Z,100462.27
2022-08-03T08:13:25.130Z,100465.55
2022-08-03T08:15:29.725Z,100465.34
2022-08-03T08:17:34.267Z,100461.3
2022-08-03T08:19:45.978Z,100456.81
2022-08-03T08:22:03.991Z,100458.42
2022-08-03T08:24:19.749Z,100458.55
2022-08-03T08:26:25.089Z,100459.9
2022-08-03T08:28:34.794Z,100456.34
2022-08-03T08:30:39.473Z,100457.51
2022-08-03T08:32:43.993Z,100463.91
2022-08-03T08:34:48.602Z,100466.09
2022-08-03T08:36:53.135Z,100459.34
2022-08-03T08:38:57.630Z,100463.25
2022-08-03T08:41:02.145Z,100461.62
2022-08-03T08:43:08.840Z,100457.8
2022-08-03T08:45:13.442Z,100459.17
2022-08-03T08:47:17.980Z,100462.19
2022-08-03T08:49:22.743Z,100459.2
2022-08-03T08:52:01.594Z,100456.39
2022-08-03T08:54:06.248Z,100454.34
2022-08-03T08:56:10.973Z,100452
2022-08-03T08:58:22.045Z,100455
2022-08-03T09:00:26.665Z,100456.67
2022-08-03T09:02:31.287Z,100452.97
2022-08-03T09:04:35.891Z,100452.98
2022-08-03T09:06:40.638Z,100456.99
2022-08-03T09:08:57.236Z,100450.5
2022-08-03T09:11:01.855Z,100454.66
2022-08-03T09:13:06.785Z,100454.99
2022-08-03T09:15:18.376Z,100446.09
2022-08-03T09:17:23.449Z,100443.59
2022-08-03T09:19:27.985Z,100454.11
2022-08-03T09:21:34.826Z,100448.45
2022-08-03T09:24:03.612Z,100441.95
2022-08-03T09:26:12.096Z,100439.53
2022-08-03T09:29:07.092Z,100442.31
2022-08-03T09:31:18.447Z,100441.15
2022-08-03T09:33:23.134Z,100447.35
2022-08-03T09:35:57.675Z,100443.25
2022-08-03T09:38:14.373Z,100439.53
2022-08-03T09:40:19.095Z,100446.86
2022-08-03T09:42:24.795Z,100447.25
2022-08-03T09:44:29.421Z,100437.47
2022-08-03T09:46:34.042Z,100440.94
2022-08-03T09:48:38.762Z,100437.92
2022-08-03T09:51:12.657Z,100438.76
2022-08-03T09:54:36.140Z,100431.31
2022-08-03T09:56:40.759Z,100430.87
2022-08-03T09:58:45.488Z,100431.55
2022-08-03T10:00:50.202Z,100428.95
2022-08-03T10:02:54.939Z,100428.64
2022-08-03T10:04:59.552Z,100428.52
2022-08-03T10:07:04.281Z,100424.7
2022-08-03T10:09:08.976Z,100418.98
2022-08-03T10:11:13.627Z,100419.27
2022-08-03T10:13:18.349Z,100421.13
2022-08-03T10:16:25.962Z,100410.23
2022-08-03T10:18:30.775Z,100406.09
2022-08-03T10:20:35.496Z,100406.84
2022-08-03T10:22:40.095Z,100408.8
2022-08-03T10:24:44.736Z,100409.96
2022-08-03T10:26:51.300Z,100412.41
2022-08-03T10:28:55.786Z,100405.03
2022-08-03T10:31:00.416Z,100405.19
2022-08-03T10:33:53.006Z,100403.72
2022-08-03T10:35:57.657Z,100408.02
2022-08-03T10:38:02.230Z,100408.88
2022-08-03T10:40:06.956Z,100405.52
2022-08-03T10:42:16.077Z,100411.67
2022-08-03T10:44:20.906Z,100404.16
2022-08-03T10:46:25.531Z,100407.84
2022-08-03T10:48:30.147Z,100404.22
2022-08-03T10:50:34.871Z,100403.39
2022-08-03T10:52:45.359Z,100400.94
2022-08-03T10:54:54.458Z,100412.35
2022-08-03T10:57:15.529Z,100400.3
2022-08-03T10:59:28.834Z,100398.61
2022-08-03T11:02:01.263Z,100395.5
2022-08-03T11:04:16.651Z,100399.6
2022-08-03T11:06:21.541Z,100404.02
2022-08-03T11:08:26.185Z,100395.87
2022-08-03T11:10:30.702Z,100400.2
2022-08-03T11:12:35.324Z,100392.17
2022-08-03T11:14:39.848Z,100386.8
2022-08-03T11:16:44.477Z,100388
2022-08-03T11:18:49.090Z,100386.24
2022-08-03T11:20:56.535Z,100391.42
2022-08-03T11:23:01.105Z,100391.88
2022-08-03T11:25:05.826Z,100384.98
2022-08-03T11:27:10.439Z,100381.84
2022-08-03T11:29:15.146Z,100382.61
2022-08-03T11:31:51.409Z,100385.63
2022-08-03T11:33:59.427Z,100383.8
2022-08-03T11:36:05.077Z,100383.27
2022-08-03T11:38:09.667Z,100378.72
2022-08-03T11:40:14.310Z,100379.2
2022-08-03T11:42:18.940Z,100381.34
2022-08-03T11:44:23.657Z,100388.38
2022-08-03T11:46:30.174Z,100384.63
2022-08-03T11:48:34.862Z,100379.61
2022-08-03T11:50:39.484Z,100375.48
2022-08-03T11:52:44.093Z,100373
2022-08-03T11:54:57.679Z,100367.17
2022-08-03T11:57:02.247Z,100365.88
2022-08-03T11:59:22.408Z,100370.52
2022-08-03T12:01:27.369Z,100367.56
2022-08-03T12:03:32.153Z,100367.23
2022-08-03T12:05:36.813Z,100362.2
2022-08-03T12:08:07.424Z,100362.55
2022-08-03T12:10:12.045Z,100360.1
2022-08-03T12:12:16.580Z,100358.04
2022-08-03T12:14:52.770Z,100357.66
2022-08-03T12:16:57.365Z,100353.63
2022-08-03T12:19:02.982Z,100348.88
2022-08-03T12:21:07.628Z,100348.04
2022-08-03T12:23:12.252Z,100344.83
2022-08-03T12:25:16.839Z,100344.37
2022-08-03T12:27:43.066Z,100340.32
2022-08-03T12:30:00.004Z,100339.95
2022-08-03T12:32:04.633Z,100338.3
2022-08-03T12:34:09.148Z,100338.09
2022-08-03T12:36:13.604Z,100340.16
2022-08-03T12:38:18.298Z,100339.48
2022-08-03T12:40:28.783Z,100337.08
2022-08-03T12:42:34.877Z,100337.53
2022-08-03T12:44:39.628Z,100335.47
2022-08-03T12:46:48.757Z,100337.42
2022-08-03T12:48:53.685Z,100333.3
2022-08-03T12:50:58.510Z,100341.23
2022-08-03T12:53:03.101Z,100336.05
2022-08-03T12:55:07.747Z,100332.39
2022-08-03T12:57:16.705Z,100333.66
2022-08-03T12:59:21.856Z,100332.27
2022-08-03T13:01:27.233Z,100327.09
2022-08-03T13:03:42.507Z,100335.2
2022-08-03T13:05:54.070Z,100332.81
2022-08-03T13:07:58.626Z,100330.05
2022-08-03T13:10:09.048Z,100337.94
2022-08-03T13:12:13.570Z,100337.02
2022-08-03T13:14:21.325Z,100329.72
2022-08-03T13:16:27.549Z,100329.38
2022-08-03T13:18:32.139Z,100330.4
2022-08-03T13:20:38.528Z,100329.45
2022-08-03T13:22:43.257Z,100325.42
2022-08-03T13:24:47.874Z,100324.69
2022-08-03T13:26:52.393Z,100325.47
2022-08-03T13:28:56.840Z,100325.47
2022-08-03T13:31:01.510Z,100324.1
2022-08-03T13:33:06.866Z,100319.3
2022-08-03T13:35:11.540Z,100320.06
2022-08-03T13:37:21.898Z,100317.26
2022-08-03T13:39:33.846Z,100326.28
2022-08-03T13:42:06.215Z,100319.53
2022-08-03T13:44:30.805Z,100319.91
2022-08-03T13:46:35.427Z,100313.53
2022-08-03T13:48:40.045Z,100317.38
2022-08-03T13:50:44.755Z,100313.38
2022-08-03T13:52:49.395Z,100311.16
2022-08-03T13:54:53.973Z,100313.58
2022-08-03T13:58:07.689Z,100310.11
2022-08-03T14:00:12.474Z,100312.75
2022-08-03T14:02:30.290Z,100308.63
2022-08-03T14:04:35.036Z,100305.7
2022-08-03T14:06:47.026Z,100307.63
2022-08-03T14:08:51.654Z,100308.17
2022-08-03T14:10:56.160Z,100303.41
2022-08-03T14:13:00.785Z,100303.27
2022-08-03T14:15:05.408Z,100302.55
2022-08-03T14:17:10.021Z,100300.25
2022-08-03T14:19:26.037Z,100296.47
2022-08-03T14:21:31.961Z,100296.14
2022-08-03T14:23:36.580Z,100293.83
2022-08-03T14:25:52.639Z,100291.88
2022-08-03T14:27:57.710Z,100293.04
2022-08-03T14:30:02.571Z,100292.23
2022-08-03T14:32:13.820Z,100289.06
2022-08-03T14:34:18.547Z,100290.27
2022-08-03T14:36:23.051Z,100288.95
2022-08-03T14:38:27.547Z,100288.72
2022-08-03T14:40:32.190Z,100282.93
2022-08-03T14:42:36.783Z,100283.34
2022-08-03T14:44:41.325Z,100283.27
2022-08-03T14:46:45.870Z,100283.55
2022-08-03T14:50:41.854Z,100280.27
2022-08-03T14:52:54.059Z,100279.86
2022-08-03T14:54:58.695Z,100282.45
2022-08-03T14:57:03.322Z,100284.73
2022-08-03T14:59:07.948Z,100280.06
2022-08-03T15:02:10.253Z,100276.82
2022-08-03T15:04:27.223Z,100275.48
2022-08-03T15:06:31.851Z,100276.23
2022-08-03T15:08:36.473Z,100270.47
2022-08-03T15:10:45.767Z,100268.83
2022-08-03T15:12:52.744Z,100269.42
2022-08-03T15:14:57.402Z,100270.23
2022-08-03T15:17:02.115Z,100266.83
2022-08-03T15:20:17.011Z,100263.6
2022-08-03T15:22:47.004Z,100259.38
2022-08-03T15:24:51.619Z,100258.56
2022-08-03T15:26:56.214Z,100254.89
2022-08-03T15:29:00.754Z,100257.13
2022-08-03T15:31:05.386Z,100255.84
2022-08-03T15:33:09.995Z,100252.66
2022-08-03T15:35:14.587Z,100254.44
2022-08-03T15:37:19.246Z,100253.66
2022-08-03T15:39:24.255Z,100248.58
2022-08-03T15:41:28.900Z,100246.39
2022-08-03T15:43:33.426Z,100247.59
2022-08-03T15:46:29.037Z,100244.75
2022-08-03T15:48:34.068Z,100245.22
2022-08-03T15:50:38.691Z,100246.04
2022-08-03T15:52:43.411Z,100245.75
2022-08-03T15:54:48.006Z,100248.29
2022-08-03T15:56:52.666Z,100245.13
2022-08-03T15:59:14.130Z,100243.97
2022-08-03T16:01:21.036Z,100243.88
2022-08-03T16:03:25.881Z,100241.77
2022-08-03T16:05:30.710Z,100239.44
2022-08-03T16:07:35.333Z,100237.97
2022-08-03T16:09:43.961Z,100235.23
2022-08-03T16:11:48.880Z,100236.67
2022-08-03T16:14:37.926Z,100232.05
2022-08-03T16:16:55.966Z,100228.64
2022-08-03T16:19:06.360Z,100227.28
2022-08-03T16:21:19.357Z,100228.23
2022-08-03T16:23:30.508Z,100227.54
2022-08-03T16:25:38.722Z,100223.1
2022-08-03T16:28:07.511Z,100223.14
2022-08-03T16:30:17.660Z,100222.63
2022-08-03T16:32:22.269Z,100225.45
2022-08-03T16:34:27.009Z,100223.48
2022-08-03T16:36:36.035Z,100223.38
2022-08-03T16:38:40.544Z,100223.12
2022-08-03T16:40:45.277Z,100222.55
2022-08-03T16:42:49.811Z,100219.59
2022-08-03T16:44:54.415Z,100221.24
2022-08-03T16:46:59.035Z,100221.7
2022-08-03T16:49:03.663Z,100220
2022-08-03T16:51:08.394Z,100229.27
2022-08-03T16:53:18.718Z,100225.83
2022-08-03T16:56:12.042Z,100227.38
2022-08-03T16:58:18.255Z,100231.05
2022-08-03T17:00:47.610Z,100228.93
2022-08-03T17:02:57.494Z,100227.2
2022-08-03T17:05:02.123Z,100230.14
2022-08-03T17:07:08.775Z,100230.13
2022-08-03T17:09:19.021Z,100233.45
2022-08-03T17:11:26.750Z,100236.5
2022-08-03T17:13:41.245Z,100237.91
2022-08-03T17:16:02.413Z,100236.11
2022-08-03T17:18:08.362Z,100235.8
2022-08-03T17:20:14.828Z,100238.44
2022-08-03T17:22:23.384Z,100235.7
2022-08-03T17:24:28.104Z,100235.34
2022-08-03T17:26:32.894Z,100240.19
2022-08-03T17:28:57.603Z,100243.59
2022-08-03T17:31:04.567Z,100245.14
2022-08-03T17:33:36.782Z,100245.8
2022-08-03T17:35:42.383Z,100246.61
2022-08-03T17:38:03.563Z,100252.22
2022-08-03T17:40:19.239Z,100252.16
2022-08-03T17:42:40.410Z,100251.28
2022-08-03T17:44:48.186Z,100250.44
2022-08-03T17:46:54.334Z,100250.11
2022-08-03T17:49:02.330Z,100251.1
2022-08-03T17:51:28.354Z,100254
2022-08-03T17:53:33.418Z,100253.84
2022-08-03T17:55:59.723Z,100256.78
2022-08-03T21:16:15.348Z,100314.19
2022-08-03T21:18:21.527Z,100309.02
2022-08-03T21:20:26.318Z,100315.46
2022-08-03T21:22:30.937Z,100316.33
2022-08-03T21:24:35.557Z,100316.06
2022-08-03T21:26:40.182Z,100314.23
2022-08-03T21:28:44.698Z,100316.35
2022-08-03T21:30:49.318Z,100315.75
2022-08-03T21:32:53.838Z,100315.17
2022-08-03T21:35:00.610Z,100315.94
2022-08-03T21:37:05.124Z,100316.55
2022-08-03T21:39:09.881Z,100324.76
2022-08-03T21:41:14.583Z,100321.05
2022-08-03T21:43:19.206Z,100322.69
2022-08-03T21:45:23.951Z,100322.94
2022-08-03T21:47:28.655Z,100326.06
2022-08-03T21:50:09.968Z,100323.09
2022-08-03T21:52:14.590Z,100324.45
2022-08-03T21:54:19.170Z,100322.2
2022-08-03T21:56:23.795Z,100322.25
2022-08-03T21:58:30.875Z,100319.03
2022-08-03T22:00:35.464Z,100318.67
2022-08-03T22:02:43.798Z,100317.44
2022-08-03T22:04:58.961Z,100324.09
2022-08-03T22:07:08.814Z,100319.63
2022-08-03T22:09:13.287Z,100320.04
2022-08-03T22:11:17.936Z,100319.04
2022-08-03T22:13:44.813Z,100326.2
2022-08-03T22:15:49.481Z,100323.22
2022-08-03T22:17:57.895Z,100328.09
2022-08-03T22:20:02.559Z,100321.05
2022-08-03T22:22:07.279Z,100317.38
2022-08-03T22:24:12.130Z,100320.64
2022-08-03T22:26:35.789Z,100318.13
2022-08-03T22:28:40.472Z,100317.55
2022-08-03T22:30:44.986Z,100321.73
2022-08-03T22:32:49.514Z,100323.38
2022-08-03T22:34:54.059Z,100320.23
2022-08-03T22:37:01.571Z,100323.88
2022-08-03T22:39:06.289Z,100323.53
2022-08-03T22:41:10.887Z,100321.31
2022-08-03T22:43:15.440Z,100322.86
2022-08-03T22:46:14.501Z,100326.48
2022-08-03T22:48:22.510Z,100327.73
2022-08-03T22:50:34.079Z,100326.36
2022-08-03T22:52:38.818Z,100327.1
2022-08-03T22:54:43.437Z,100321.44
2022-08-03T22:56:48.086Z,100320.28
2022-08-03T22:58:52.660Z,100319.7
2022-08-03T23:00:57.289Z,100318.53
2022-08-03T23:03:01.970Z,100320.55
2022-08-03T23:05:59.418Z,100320.67
2022-08-03T23:08:07.281Z,100322.36
2022-08-03T23:10:11.814Z,100319.25
2022-08-03T23:12:16.427Z,100316.5
2022-08-03T23:14:21.046Z,100318
2022-08-03T23:16:29.985Z,100318.52
2022-08-03T23:18:38.277Z,100317.08
2022-08-03T23:20:45.693Z,100321.2
2022-08-03T23:22:54.738Z,100318.73
2022-08-03T23:24:59.372Z,100319.09
2022-08-03T23:27:04.036Z,100321.53
2022-08-03T23:29:08.866Z,100320.44
2022-08-03T23:31:19.015Z,100325.23
2022-08-03T23:33:23.691Z,100327.5
2022-08-03T23:36:31.933Z,100327.34
2022-08-03T23:38:36.596Z,100326.55
2022-08-03T23:40:41.270Z,100326.7
2022-08-03T23:42:45.811Z,100328.3
2022-08-03T23:44:50.434Z,100327.42
2022-08-03T23:46:55.055Z,100330.91
2022-08-03T23:48:59.680Z,100331.58
2022-08-03T23:51:04.312Z,100330.91
2022-08-03T23:53:08.921Z,100333.73
2022-08-03T23:55:13.400Z,100332.23
2022-08-03T23:57:18.061Z,100332.34
2022-08-03T23:59:23.051Z,100334.8
